Time;durP1;ratioP1;P1;durP2;ratioP2;P2;SDS_P1;SDS_P2;PMS_P1;PMS_P2;Temp;Humidity;BMP_temperature;BMP_pressure;BME280_temperature;BME280_humidity;BME280_pressure;Samples;Min_cycle;Max_cycle;Signal;HPM_P1;HPM_P2
2022/06/13 00:00:07;;;;;;;;;4.67;4.00;;;;;;;;5059287;28;46191;-68
2022/06/13 00:02:33;;;;;;;;;5.33;4.00;;;;;;;;5059686;28;45368;-69
2022/06/13 00:04:59;;;;;;;;;6.00;6.00;;;;;;;;5059352;28;45495;-68
2022/06/13 00:07:24;;;;;;;;;3.33;3.33;;;;;;;;5060100;28;45362;-69
2022/06/13 00:09:50;;;;;;;;;4.33;3.67;;;;;;;;5075245;28;46134;-70
2022/06/13 00:12:15;;;;;;;;;6.00;4.33;;;;;;;;5058966;28;45511;-70
2022/06/13 00:14:40;;;;;;;;;5.33;5.33;;;;;;;;5059581;28;45359;-70
2022/06/13 00:17:05;;;;;;;;;5.67;4.33;;;;;;;;5060133;28;45419;-69
2022/06/13 00:19:30;;;;;;;;;4.67;4.67;;;;;;;;5075107;28;47340;-69
2022/06/13 00:21:56;;;;;;;;;8.33;6.00;;;;;;;;5059107;28;45447;-69
2022/06/13 00:24:21;;;;;;;;;5.67;5.33;;;;;;;;5059726;28;45349;-69
2022/06/13 00:26:46;;;;;;;;;9.00;4.00;;;;;;;;5059941;28;45423;-69
2022/06/13 00:29:11;;;;;;;;;5.00;4.00;;;;;;;;5059378;28;46207;-70
2022/06/13 00:31:37;;;;;;;;;2.00;1.00;;;;;;;;5060036;28;45674;-70
2022/06/13 00:34:02;;;;;;;;;8.33;4.67;;;;;;;;5060197;28;45275;-69
2022/06/13 00:36:27;;;;;;;;;6.00;3.33;;;;;;;;5060258;28;45455;-70
2022/06/13 00:38:55;;;;;;;;;5.00;5.00;;;;;;;;5059604;28;46691;-69
2022/06/13 00:41:23;;;;;;;;;6.00;6.00;;;;;;;;5059246;28;45298;-70
2022/06/13 00:43:49;;;;;;;;;10.33;3.33;;;;;;;;5059686;28;45247;-70
2022/06/13 00:46:25;;;;;;;;;8.33;5.00;;;;;;;;5060044;28;45293;-69
2022/06/13 00:48:53;;;;;;;;;6.67;5.33;;;;;;;;5058270;28;45710;-70
2022/06/13 00:51:19;;;;;;;;;9.33;6.00;;;;;;;;5059581;28;45425;-70
2022/06/13 00:53:45;;;;;;;;;11.00;6.00;;;;;;;;5059638;28;45328;-69
2022/06/13 00:56:13;;;;;;;;;5.00;4.67;;;;;;;;5059802;28;45321;-69
2022/06/13 00:58:40;;;;;;;;;8.67;6.67;;;;;;;;5059038;28;46441;-70
2022/06/13 01:01:06;;;;;;;;;10.00;4.67;;;;;;;;5059401;28;45238;-69
2022/06/13 01:03:32;;;;;;;;;10.00;6.00;;;;;;;;5059192;28;45686;-70
2022/06/13 01:05:59;;;;;;;;;8.00;5.33;;;;;;;;5059679;28;45355;-69
2022/06/13 01:08:26;;;;;;;;;5.67;5.00;;;;;;;;5058975;28;45718;-70
2022/06/13 01:13:46;;;;;;;;;7.33;6.00;;;;;;;;5059292;28;45277;-70
2022/06/13 01:16:14;;;;;;;;;6.33;5.67;;;;;;;;5059530;28;45373;-70
2022/06/13 01:18:42;;;;;;;;;8.33;4.33;;;;;;;;5059256;28;46248;-70
2022/06/13 01:21:17;;;;;;;;;11.67;5.67;;;;;;;;5059048;28;45350;-69
2022/06/13 01:23:42;;;;;;;;;9.00;6.67;;;;;;;;5058764;28;45423;-70
2022/06/13 01:26:39;;;;;;;;;5.00;5.00;;;;;;;;5059431;28;45391;-69
2022/06/13 01:29:19;;;;;;;;;6.00;4.00;;;;;;;;5058975;28;46734;-70
2022/06/13 01:32:01;;;;;;;;;5.00;5.00;;;;;;;;5057773;28;45312;-69
2022/06/13 01:34:26;;;;;;;;;5.67;5.33;;;;;;;;5059313;28;45395;-70
2022/06/13 01:36:54;;;;;;;;;4.33;3.00;;;;;;;;5059165;28;45369;-69
2022/06/13 01:39:42;;;;;;;;;6.67;5.67;;;;;;;;5058815;28;45684;-70
2022/06/13 01:42:16;;;;;;;;;4.00;4.00;;;;;;;;5036180;28;45464;-69
2022/06/13 01:44:57;;;;;;;;;6.33;5.00;;;;;;;;5033193;28;45575;-70
2022/06/13 01:47:29;;;;;;;;;5.33;5.33;;;;;;;;5016782;28;45447;-70
2022/06/13 01:49:54;;;;;;;;;4.67;4.67;;;;;;;;5016385;28;46561;-70
2022/06/13 01:52:28;;;;;;;;;9.00;6.33;;;;;;;;5016516;28;45640;-70
2022/06/13 01:54:57;;;;;;;;;6.00;4.00;;;;;;;;5029032;28;45615;-70
2022/06/13 01:57:23;;;;;;;;;5.67;5.67;;;;;;;;5036403;28;45353;-70
2022/06/13 01:59:48;;;;;;;;;11.00;5.67;;;;;;;;5035296;28;45559;-70
2022/06/13 02:02:17;;;;;;;;;10.33;7.67;;;;;;;;5034110;28;45452;-70
2022/06/13 02:05:05;;;;;;;;;5.67;5.67;;;;;;;;5036342;28;45669;-70
2022/06/13 02:07:33;;;;;;;;;9.33;5.00;;;;;;;;4957347;28;45459;-70
2022/06/13 02:10:06;;;;;;;;;4.67;4.00;;;;;;;;4957089;28;45469;-70
2022/06/13 02:12:34;;;;;;;;;4.00;4.00;;;;;;;;4956970;28;45494;-70
2022/06/13 02:15:06;;;;;;;;;5.67;5.00;;;;;;;;4957030;28;45473;-69
2022/06/13 02:17:35;;;;;;;;;5.67;4.67;;;;;;;;4941598;28;45374;-69
2022/06/13 02:20:05;;;;;;;;;10.00;6.33;;;;;;;;4953483;28;45448;-69
2022/06/13 02:22:33;;;;;;;;;7.33;4.33;;;;;;;;4957022;28;45342;-69
2022/06/13 02:25:00;;;;;;;;;8.00;6.00;;;;;;;;4956866;28;45293;-69
2022/06/13 02:27:31;;;;;;;;;7.67;4.00;;;;;;;;4957230;28;45537;-69
2022/06/13 02:29:58;;;;;;;;;9.33;6.33;;;;;;;;4956677;28;45438;-70
2022/06/13 02:32:23;;;;;;;;;6.33;4.00;;;;;;;;4957009;28;45400;-70
2022/06/13 02:34:53;;;;;;;;;11.67;6.00;;;;;;;;4953175;28;45269;-70
2022/06/13 02:37:25;;;;;;;;;11.00;7.67;;;;;;;;4957041;28;45377;-69
2022/06/13 02:39:56;;;;;;;;;9.00;6.67;;;;;;;;4956457;28;45809;-70
2022/06/13 02:42:27;;;;;;;;;9.00;5.00;;;;;;;;4954981;28;45350;-70
2022/06/13 02:45:03;;;;;;;;;10.33;6.33;;;;;;;;5021758;28;45307;-70
2022/06/13 02:47:35;;;;;;;;;8.67;6.67;;;;;;;;5065163;28;45340;-70
2022/06/13 02:50:11;;;;;;;;;6.33;4.00;;;;;;;;5078095;28;47529;-70
2022/06/13 02:52:42;;;;;;;;;6.00;6.00;;;;;;;;5077909;28;45395;-70
2022/06/13 02:55:10;;;;;;;;;7.67;6.67;;;;;;;;5078208;28;45258;-70
2022/06/13 02:57:54;;;;;;;;;21.00;6.00;;;;;;;;5078168;28;45221;-70
2022/06/13 03:00:22;;;;;;;;;6.33;5.00;;;;;;;;5077019;28;46339;-71
2022/06/13 03:02:53;;;;;;;;;4.50;4.50;;;;;;;;5057390;28;45175;-70
2022/06/13 03:05:30;;;;;;;;;8.00;6.33;;;;;;;;5057491;28;45407;-70
2022/06/13 03:07:59;;;;;;;;;9.00;5.33;;;;;;;;5057925;28;45206;-70
2022/06/13 03:10:30;;;;;;;;;6.00;4.67;;;;;;;;5063638;28;46461;-70
2022/06/13 03:13:05;;;;;;;;;9.00;5.33;;;;;;;;5076902;28;45411;-70
2022/06/13 03:15:34;;;;;;;;;9.67;4.67;;;;;;;;5077522;28;45446;-70
2022/06/13 03:18:03;;;;;;;;;6.33;6.00;;;;;;;;5067589;28;45594;-70
2022/06/13 03:20:32;;;;;;;;;7.00;7.00;;;;;;;;5057259;28;46709;-69
2022/06/13 03:23:01;;;;;;;;;7.00;5.33;;;;;;;;5056883;28;45338;-71
2022/06/13 03:25:32;;;;;;;;;7.67;5.00;;;;;;;;5057441;28;45361;-70
2022/06/13 03:27:58;;;;;;;;;8.00;5.00;;;;;;;;5057400;28;45502;-70
2022/06/13 03:30:25;;;;;;;;;5.00;3.00;;;;;;;;5072177;28;47414;-70
2022/06/13 03:35:44;;;;;;;;;10.00;6.33;;;;;;;;5077801;28;45363;-71
2022/06/13 03:38:12;;;;;;;;;8.67;6.00;;;;;;;;5071912;28;45496;-70
2022/06/13 03:40:40;;;;;;;;;4.67;3.67;;;;;;;;5057002;28;46532;-70
2022/06/13 03:43:10;;;;;;;;;8.67;7.00;;;;;;;;5057154;28;45382;-70
2022/06/13 03:45:46;;;;;;;;;7.33;6.00;;;;;;;;5056980;28;45807;-71
2022/06/13 03:48:14;;;;;;;;;7.67;5.67;;;;;;;;5057337;28;45247;-70
2022/06/13 03:50:39;;;;;;;;;11.00;7.33;;;;;;;;5056917;28;46295;-70
2022/06/13 03:53:06;;;;;;;;;8.67;5.00;;;;;;;;5063810;28;45461;-70
2022/06/13 03:55:39;;;;;;;;;7.67;5.00;;;;;;;;5077382;28;45235;-70
2022/06/13 03:58:04;;;;;;;;;7.00;4.33;;;;;;;;5077160;28;45409;-70
2022/06/13 04:00:32;;;;;;;;;8.00;6.00;;;;;;;;5066631;28;45624;-70
2022/06/13 04:02:59;;;;;;;;;10.33;6.33;;;;;;;;5056823;28;45428;-70
2022/06/13 04:05:36;;;;;;;;;3.67;3.67;;;;;;;;5056899;28;45328;-70
2022/06/13 04:08:04;;;;;;;;;7.33;3.67;;;;;;;;5056847;28;45281;-70
2022/06/13 04:10:36;;;;;;;;;7.00;2.33;;;;;;;;5056898;28;46730;-70
2022/06/13 04:13:10;;;;;;;;;8.00;5.67;;;;;;;;5056766;28;45309;-70
2022/06/13 04:15:38;;;;;;;;;52.75;44.00;;;;;;;;5068194;28;45786;-70
2022/06/13 04:18:17;;;;;;;;;7.67;6.67;;;;;;;;5077149;28;45446;-71
2022/06/13 04:20:45;;;;;;;;;14.33;7.33;;;;;;;;5077014;28;45435;-70
2022/06/13 04:23:19;;;;;;;;;6.00;5.00;;;;;;;;5078723;28;45403;-70
2022/06/13 04:25:57;;;;;;;;;6.33;6.33;;;;;;;;5080220;28;45375;-70
2022/06/13 04:28:24;;;;;;;;;4.33;4.33;;;;;;;;5078745;28;45258;-71
2022/06/13 04:30:51;;;;;;;;;7.67;4.67;;;;;;;;5080063;28;45275;-71
2022/06/13 04:33:19;;;;;;;;;8.00;4.67;;;;;;;;5076302;28;45433;-71
2022/06/13 04:35:47;;;;;;;;;7.33;4.67;;;;;;;;5080612;28;45382;-71
2022/06/13 04:38:15;;;;;;;;;7.67;4.33;;;;;;;;5080510;28;45396;-71
2022/06/13 04:40:42;;;;;;;;;6.33;4.00;;;;;;;;5079926;28;46489;-71
2022/06/13 04:43:09;;;;;;;;;7.33;3.33;;;;;;;;5080028;28;45159;-71
2022/06/13 04:46:01;;;;;;;;;8.33;5.00;;;;;;;;5079930;28;45271;-70
2022/06/13 04:48:27;;;;;;;;;8.00;5.00;;;;;;;;5036525;28;45306;-70
2022/06/13 04:50:55;;;;;;;;;8.67;5.00;;;;;;;;5066139;28;46070;-70
2022/06/13 04:53:25;;;;;;;;;7.67;5.00;;;;;;;;5080077;28;45334;-70
2022/06/13 04:55:51;;;;;;;;;4.33;4.33;;;;;;;;5080069;28;45474;-71
2022/06/13 04:58:23;;;;;;;;;4.00;3.33;;;;;;;;5079798;28;45373;-70
2022/06/13 05:00:52;;;;;;;;;6.33;4.67;;;;;;;;5079610;28;45720;-70
2022/06/13 05:03:22;;;;;;;;;3.00;3.00;;;;;;;;5079725;28;45266;-70
2022/06/13 05:05:50;;;;;;;;;9.33;4.00;;;;;;;;5064153;28;45402;-70
2022/06/13 05:08:23;;;;;;;;;8.33;5.00;;;;;;;;5059877;28;45467;-70
2022/06/13 05:10:51;;;;;;;;;2.33;2.33;;;;;;;;5059104;28;45480;-70
2022/06/13 05:13:17;;;;;;;;;4.00;3.67;;;;;;;;5059293;28;45256;-70
2022/06/13 05:15:44;;;;;;;;;10.00;5.67;;;;;;;;5059407;28;45431;-69
2022/06/13 05:18:22;;;;;;;;;9.00;4.00;;;;;;;;5059331;28;45533;-70
2022/06/13 05:20:56;;;;;;;;;6.00;5.00;;;;;;;;5059061;28;46292;-69
2022/06/13 05:23:36;;;;;;;;;6.33;3.00;;;;;;;;5059170;28;45353;-69
2022/06/13 05:26:02;;;;;;;;;7.67;5.00;;;;;;;;5059078;28;45409;-70
2022/06/13 05:28:29;;;;;;;;;0.67;0.00;;;;;;;;5059479;28;45214;-70
2022/06/13 05:30:55;;;;;;;;;11.00;4.00;;;;;;;;5065644;28;47183;-70
2022/06/13 05:33:26;;;;;;;;;2.00;2.00;;;;;;;;5060597;28;45666;-70
2022/06/13 05:35:54;;;;;;;;;5.00;4.00;;;;;;;;5058092;28;45847;-69
2022/06/13 05:38:26;;;;;;;;;6.00;3.33;;;;;;;;5059389;28;45364;-70
2022/06/13 05:40:51;;;;;;;;;5.00;3.33;;;;;;;;5072352;28;45549;-70
2022/06/13 05:43:17;;;;;;;;;4.33;3.00;;;;;;;;5078998;28;45464;-69
2022/06/13 05:45:42;;;;;;;;;8.33;4.00;;;;;;;;5079168;28;45276;-70
2022/06/13 05:48:13;;;;;;;;;12.00;8.33;;;;;;;;5079195;28;45258;-69
2022/06/13 05:50:38;;;;;;;;;5.67;5.67;;;;;;;;5078875;28;46684;-69
2022/06/13 05:53:03;;;;;;;;;3.33;3.00;;;;;;;;5076062;28;45332;-69
2022/06/13 05:55:29;;;;;;;;;3.00;3.00;;;;;;;;5056223;28;45690;-69
2022/06/13 05:57:54;;;;;;;;;4.00;4.00;;;;;;;;5058390;28;45483;-69
2022/06/13 06:00:22;;;;;;;;;3.00;1.33;;;;;;;;5057575;28;47160;-70
2022/06/13 06:02:48;;;;;;;;;3.00;3.00;;;;;;;;5058092;28;45337;-69
2022/06/13 06:05:13;;;;;;;;;2.00;2.00;;;;;;;;5058691;28;45472;-69
2022/06/13 06:07:39;;;;;;;;;3.00;3.00;;;;;;;;5058401;28;45413;-69
2022/06/13 06:10:05;;;;;;;;;2.75;2.75;;;;;;;;5058180;28;45743;-70
2022/06/13 06:12:30;;;;;;;;;5.00;4.00;;;;;;;;5057756;28;45488;-69
2022/06/13 06:14:56;;;;;;;;;5.67;4.33;;;;;;;;5057837;28;45428;-69
2022/06/13 06:17:21;;;;;;;;;5.00;2.50;;;;;;;;5058169;28;45416;-70
2022/06/13 06:19:46;;;;;;;;;4.00;4.00;;;;;;;;5057275;28;46342;-69
2022/06/13 06:22:12;;;;;;;;;5.00;3.33;;;;;;;;5058220;28;45458;-70
2022/06/13 06:24:38;;;;;;;;;4.67;3.33;;;;;;;;5057654;28;45393;-70
2022/06/13 06:27:04;;;;;;;;;2.33;2.33;;;;;;;;5058096;28;45476;-69
2022/06/13 06:29:29;;;;;;;;;2.00;2.00;;;;;;;;5060344;28;46352;-69
2022/06/13 06:31:54;;;;;;;;;3.67;1.00;;;;;;;;5078015;28;45328;-70
2022/06/13 06:34:20;;;;;;;;;5.67;3.00;;;;;;;;5078013;28;45267;-70
2022/06/13 06:36:45;;;;;;;;;3.00;3.00;;;;;;;;5077876;28;45352;-69
2022/06/13 06:39:10;;;;;;;;;0.33;0.33;;;;;;;;5077957;28;46572;-70
2022/06/13 06:41:35;;;;;;;;;2.00;2.00;;;;;;;;5077921;28;45347;-70
2022/06/13 06:44:00;;;;;;;;;3.67;3.00;;;;;;;;5076217;28;45261;-69
2022/06/13 06:46:26;;;;;;;;;2.00;2.00;;;;;;;;5076042;28;45257;-70
2022/06/13 06:48:51;;;;;;;;;3.33;1.67;;;;;;;;5077311;28;46766;-70
2022/06/13 06:51:17;;;;;;;;;3.00;3.00;;;;;;;;5077698;28;45238;-69
2022/06/13 07:01:54;;;;;;;;;6.00;2.33;;;;;;;;5061073;28;45369;-70
2022/06/13 07:04:19;;;;;;;;;2.67;2.67;;;;;;;;5069778;28;45418;-70
2022/06/13 07:06:45;;;;;;;;;2.67;2.00;;;;;;;;5071721;28;45320;-69
2022/06/13 07:09:10;;;;;;;;;2.67;2.00;;;;;;;;5077088;28;45672;-71
2022/06/13 07:11:54;;;;;;;;;3.33;1.67;;;;;;;;5062071;28;45296;-70
2022/06/13 07:14:19;;;;;;;;;4.00;2.00;;;;;;;;5057076;28;45233;-71
2022/06/13 07:16:44;;;;;;;;;3.00;2.67;;;;;;;;5057150;28;45436;-71
2022/06/13 07:19:10;;;;;;;;;2.00;2.00;;;;;;;;5057544;28;46435;-70
2022/06/13 07:21:35;;;;;;;;;2.00;0.67;;;;;;;;5077471;28;45312;-70
2022/06/13 07:24:01;;;;;;;;;5.67;2.33;;;;;;;;5075658;28;45234;-70
2022/06/13 07:26:26;;;;;;;;;5.00;5.00;;;;;;;;5075177;28;45666;-70
2022/06/13 07:28:51;;;;;;;;;3.00;2.00;;;;;;;;5076627;28;45498;-71
2022/06/13 07:31:19;;;;;;;;;5.33;2.00;;;;;;;;5066929;28;45458;-71
2022/06/13 07:33:45;;;;;;;;;5.00;1.67;;;;;;;;5056883;28;45506;-70
2022/06/13 07:36:10;;;;;;;;;2.00;2.00;;;;;;;;5056979;28;45321;-69
2022/06/13 07:38:35;;;;;;;;;3.00;1.67;;;;;;;;5057051;28;45541;-70
2022/06/13 07:41:01;;;;;;;;;3.33;2.67;;;;;;;;5056923;28;45417;-70
2022/06/13 07:43:34;;;;;;;;;4.33;2.33;;;;;;;;5057005;28;45421;-70
2022/06/13 07:46:02;;;;;;;;;2.00;2.00;;;;;;;;5057870;28;45507;-71
2022/06/13 07:48:27;;;;;;;;;1.00;1.00;;;;;;;;5056388;28;46317;-71
2022/06/13 07:50:53;;;;;;;;;5.00;1.00;;;;;;;;5056701;28;45547;-71
2022/06/13 07:53:18;;;;;;;;;4.00;2.00;;;;;;;;5056860;28;45380;-70
2022/06/13 07:55:43;;;;;;;;;2.33;1.33;;;;;;;;5060363;28;45388;-71
2022/06/13 07:58:15;;;;;;;;;2.67;1.33;;;;;;;;5078335;28;47146;-70
2022/06/13 08:00:40;;;;;;;;;3.33;3.33;;;;;;;;5080396;28;45387;-71
2022/06/13 08:03:05;;;;;;;;;1.00;1.00;;;;;;;;5070852;28;45467;-70
2022/06/13 08:05:31;;;;;;;;;5.67;2.33;;;;;;;;5060566;28;45426;-70
2022/06/13 08:07:56;;;;;;;;;4.67;3.00;;;;;;;;5060017;28;45459;-71
2022/06/13 08:10:22;;;;;;;;;3.00;1.33;;;;;;;;5060203;28;45340;-71
2022/06/13 08:12:48;;;;;;;;;4.00;2.00;;;;;;;;5060011;28;45672;-70
2022/06/13 08:15:13;;;;;;;;;4.00;1.00;;;;;;;;5060252;28;45415;-70
2022/06/13 08:17:39;;;;;;;;;1.00;1.00;;;;;;;;5059783;28;47172;-70
2022/06/13 08:20:04;;;;;;;;;4.00;2.33;;;;;;;;5059706;28;45425;-71
2022/06/13 08:22:30;;;;;;;;;1.00;1.00;;;;;;;;5059855;28;45330;-71
2022/06/13 08:24:56;;;;;;;;;2.00;2.00;;;;;;;;5059956;28;45438;-69
2022/06/13 08:27:21;;;;;;;;;4.00;2.00;;;;;;;;5059477;28;45437;-71
2022/06/13 08:29:46;;;;;;;;;2.33;2.00;;;;;;;;5059686;28;45373;-70
2022/06/13 08:32:12;;;;;;;;;1.00;1.00;;;;;;;;5059937;28;45332;-71
2022/06/13 08:34:38;;;;;;;;;3.33;2.00;;;;;;;;5059634;28;45376;-69
2022/06/13 08:37:03;;;;;;;;;2.33;2.33;;;;;;;;5040741;28;46316;-70
2022/06/13 08:39:29;;;;;;;;;4.00;0.00;;;;;;;;5059883;28;45479;-70
2022/06/13 08:41:56;;;;;;;;;3.00;2.00;;;;;;;;5059889;28;45777;-70
2022/06/13 08:44:40;;;;;;;;;4.67;3.00;;;;;;;;5059862;28;45342;-70
2022/06/13 08:47:14;;;;;;;;;2.00;2.00;;;;;;;;5059327;28;46404;-70
2022/06/13 08:49:58;;;;;;;;;3.00;3.00;;;;;;;;5059367;28;45447;-70
2022/06/13 08:52:23;;;;;;;;;4.00;1.00;;;;;;;;5058937;28;45429;-74
2022/06/13 08:54:54;;;;;;;;;2.00;2.00;;;;;;;;5059765;28;45418;-72
2022/06/13 08:57:21;;;;;;;;;1.00;1.00;;;;;;;;5059236;28;47255;-72
2022/06/13 08:59:52;;;;;;;;;1.33;1.33;;;;;;;;5059678;28;45220;-71
2022/06/13 09:02:20;;;;;;;;;2.33;2.00;;;;;;;;5059288;28;45364;-72
2022/06/13 09:04:55;;;;;;;;;1.00;1.00;;;;;;;;5059169;28;45366;-70
2022/06/13 09:07:27;;;;;;;;;5.00;2.00;;;;;;;;5059506;28;45637;-71
2022/06/13 09:10:05;;;;;;;;;3.67;2.00;;;;;;;;5057944;28;45498;-71
2022/06/13 09:12:49;;;;;;;;;2.00;2.00;;;;;;;;5059548;28;45850;-74
2022/06/13 09:15:18;;;;;;;;;3.00;2.00;;;;;;;;5059114;28;45445;-71
2022/06/13 09:17:47;;;;;;;;;2.00;1.00;;;;;;;;5059281;28;45460;-76
2022/06/13 09:20:18;;;;;;;;;2.00;1.00;;;;;;;;5057821;28;45384;-76
2022/06/13 09:22:54;;;;;;;;;3.00;3.00;;;;;;;;5059205;28;45312;-74
2022/06/13 09:25:19;;;;;;;;;6.67;4.00;;;;;;;;5059186;28;45355;-72
2022/06/13 09:27:57;;;;;;;;;3.00;3.00;;;;;;;;5058968;28;45360;-74
2022/06/13 09:30:25;;;;;;;;;6.67;2.33;;;;;;;;5058927;28;45439;-74
2022/06/13 09:32:54;;;;;;;;;5.00;3.00;;;;;;;;5058673;28;45308;-69
2022/06/13 09:35:20;;;;;;;;;3.00;3.00;;;;;;;;5058945;28;45455;-72
2022/06/13 09:37:53;;;;;;;;;2.00;2.00;;;;;;;;5058931;28;45486;-70
2022/06/13 09:40:24;;;;;;;;;2.67;1.00;;;;;;;;5058893;28;45238;-72
2022/06/13 09:42:49;;;;;;;;;3.33;2.00;;;;;;;;5058997;28;45339;-72
2022/06/13 09:45:17;;;;;;;;;2.67;1.00;;;;;;;;5058741;28;45324;-71
2022/06/13 09:48:00;;;;;;;;;2.00;2.00;;;;;;;;5058405;28;46498;-68
2022/06/13 09:50:25;;;;;;;;;5.00;2.00;;;;;;;;5058568;28;45348;-72
2022/06/13 09:52:50;;;;;;;;;4.33;3.00;;;;;;;;5058692;28;45418;-70
2022/06/13 09:55:15;;;;;;;;;1.67;1.00;;;;;;;;5059092;28;45363;-74
2022/06/13 09:57:53;;;;;;;;;1.33;1.33;;;;;;;;5058414;28;45223;-74
2022/06/13 10:00:22;;;;;;;;;3.33;1.00;;;;;;;;5058656;28;45260;-72
2022/06/13 10:03:06;;;;;;;;;2.00;2.00;;;;;;;;5058446;28;45359;-71
2022/06/13 10:05:36;;;;;;;;;1.33;1.33;;;;;;;;5058462;28;45424;-72
2022/06/13 10:08:07;;;;;;;;;3.00;0.67;;;;;;;;5058494;28;45414;-67
2022/06/13 10:10:55;;;;;;;;;3.00;3.00;;;;;;;;5058119;28;45661;-72
2022/06/13 10:13:28;;;;;;;;;0.67;0.67;;;;;;;;4996391;28;45426;-69
2022/06/13 10:16:04;;;;;;;;;1.33;0.67;;;;;;;;4996509;28;45470;-71
2022/06/13 10:18:30;;;;;;;;;1.33;1.00;;;;;;;;4995087;28;46647;-71
2022/06/13 10:20:59;;;;;;;;;1.00;1.00;;;;;;;;4994874;28;45414;-69
2022/06/13 10:23:47;;;;;;;;;2.00;0.00;;;;;;;;4995536;28;45477;-72
2022/06/13 10:26:15;;;;;;;;;0.67;0.67;;;;;;;;4995543;28;45810;-74
2022/06/13 10:28:40;;;;;;;;;1.00;1.00;;;;;;;;4982001;28;46188;-72
2022/06/13 10:31:15;;;;;;;;;0.00;0.00;;;;;;;;4994780;28;45532;-71
2022/06/13 10:33:50;;;;;;;;;1.33;0.00;;;;;;;;4993903;28;45578;-72
2022/06/13 10:36:34;;;;;;;;;0.33;0.33;;;;;;;;4995061;28;45360;-71
2022/06/13 10:39:04;;;;;;;;;0.67;0.67;;;;;;;;4981309;28;46699;-69
2022/06/13 10:41:30;;;;;;;;;1.00;1.00;;;;;;;;4995418;28;45547;-72
2022/06/13 10:43:57;;;;;;;;;2.33;0.67;;;;;;;;4993701;28;45416;-72
2022/06/13 10:46:22;;;;;;;;;0.67;0.67;;;;;;;;4993892;28;45433;-68
2022/06/13 10:49:23;;;;;;;;;0.00;0.00;;;;;;;;4994940;28;45501;-67
2022/06/13 10:51:48;;;;;;;;;0.67;0.67;;;;;;;;5014843;28;45529;-70
2022/06/13 10:54:23;;;;;;;;;0.00;0.00;;;;;;;;4997905;28;45452;-70
2022/06/13 10:56:50;;;;;;;;;0.00;0.00;;;;;;;;5015056;28;45417;-71
2022/06/13 10:59:21;;;;;;;;;0.00;0.00;;;;;;;;5012691;28;45767;-70
2022/06/13 11:01:58;;;;;;;;;0.00;0.00;;;;;;;;5014585;28;45540;-71
2022/06/13 11:04:24;;;;;;;;;1.00;0.33;;;;;;;;5014560;28;45423;-70
2022/06/13 11:06:53;;;;;;;;;0.00;0.00;;;;;;;;5013239;28;45394;-70
2022/06/13 11:09:20;;;;;;;;;0.00;0.00;;;;;;;;4994407;28;45552;-70
2022/06/13 11:11:46;;;;;;;;;0.00;0.00;;;;;;;;4994610;28;45513;-70
2022/06/13 11:14:26;;;;;;;;;0.67;0.33;;;;;;;;5004825;28;45425;-70
2022/06/13 11:22:39;;;;;;;;;2.00;1.00;;;;;;;;5014542;28;45489;-69
2022/06/13 11:25:33;;;;;;;;;1.00;1.00;;;;;;;;5026344;28;45311;-69
2022/06/13 11:28:09;;;;;;;;;2.00;2.00;;;;;;;;4975179;28;45434;-70
2022/06/13 11:30:40;;;;;;;;;1.00;1.00;;;;;;;;4990071;28;46195;-70
2022/06/13 11:33:09;;;;;;;;;1.00;1.00;;;;;;;;4992823;28;45406;-70
2022/06/13 11:35:37;;;;;;;;;1.00;0.00;;;;;;;;4990890;28;45457;-68
2022/06/13 11:38:21;;;;;;;;;2.00;1.00;;;;;;;;5014353;28;45487;-70
2022/06/13 11:40:57;;;;;;;;;0.67;0.67;;;;;;;;5003131;28;45596;-70
2022/06/13 11:43:43;;;;;;;;;1.00;1.00;;;;;;;;4994465;28;45501;-70
2022/06/13 11:46:12;;;;;;;;;1.00;1.00;;;;;;;;4993935;28;45398;-69
2022/06/13 11:48:43;;;;;;;;;2.00;0.33;;;;;;;;4994579;28;45934;-70
2022/06/13 11:51:17;;;;;;;;;1.00;1.00;;;;;;;;5004101;28;46429;-69
2022/06/13 11:53:43;;;;;;;;;0.67;0.67;;;;;;;;5014273;28;45518;-69
2022/06/13 11:56:11;;;;;;;;;1.67;0.00;;;;;;;;5003961;28;45370;-70
2022/06/13 11:58:40;;;;;;;;;2.00;0.00;;;;;;;;4984846;28;45415;-71
2022/06/13 12:01:08;;;;;;;;;1.00;1.00;;;;;;;;4990392;28;47085;-72
2022/06/13 12:03:34;;;;;;;;;0.00;0.00;;;;;;;;4999888;28;45449;-71
2022/06/13 12:06:08;;;;;;;;;1.00;1.00;;;;;;;;5047334;28;45590;-72
2022/06/13 12:08:34;;;;;;;;;2.00;2.00;;;;;;;;5035414;28;45534;-72
2022/06/13 12:11:02;;;;;;;;;1.00;1.00;;;;;;;;5035582;28;45953;-72
2022/06/13 12:13:29;;;;;;;;;3.33;3.33;;;;;;;;5035816;28;45404;-68
2022/06/13 12:16:08;;;;;;;;;10.00;10.00;;;;;;;;5036141;28;45392;-68
2022/06/13 12:18:33;;;;;;;;;4.00;4.00;;;;;;;;5035699;28;45551;-69
2022/06/13 12:21:08;;;;;;;;;12.00;9.00;;;;;;;;5045767;28;45568;-68
2022/06/13 12:23:38;;;;;;;;;22.67;18.67;;;;;;;;5055478;28;45494;-68
2022/06/13 12:26:41;;;;;;;;;49.00;40.75;;;;;;;;5055912;28;45248;-68
2022/06/13 12:29:26;;;;;;;;;15.33;14.33;;;;;;;;5013736;28;45411;-70
2022/06/13 12:32:00;;;;;;;;;48.67;37.67;;;;;;;;5012892;28;45514;-69
2022/06/13 12:34:44;;;;;;;;;31.00;28.00;;;;;;;;5013030;28;45608;-71
2022/06/13 12:37:36;;;;;;;;;8.00;8.00;;;;;;;;5014611;28;45701;-71
2022/06/13 12:40:20;;;;;;;;;10.00;6.67;;;;;;;;4958866;28;45507;-70
2022/06/13 12:43:05;;;;;;;;;9.00;7.00;;;;;;;;5032934;28;46055;-69
2022/06/13 12:45:49;;;;;;;;;4.00;4.00;;;;;;;;5036483;28;45447;-70
2022/06/13 12:48:17;;;;;;;;;4.33;3.00;;;;;;;;5036589;28;45888;-70
2022/06/13 12:50:55;;;;;;;;;4.33;4.33;;;;;;;;5019851;28;45564;-71
2022/06/13 12:53:21;;;;;;;;;1.00;1.00;;;;;;;;4996825;28;46827;-70
2022/06/13 12:56:02;;;;;;;;;1.00;1.00;;;;;;;;4996551;28;45501;-70
2022/06/13 12:58:33;;;;;;;;;0.67;0.67;;;;;;;;5014809;28;45613;-71
2022/06/13 13:01:02;;;;;;;;;0.00;0.00;;;;;;;;5037677;28;45279;-70
2022/06/13 13:03:28;;;;;;;;;0.00;0.00;;;;;;;;5051789;28;47057;-71
2022/06/13 13:05:56;;;;;;;;;1.00;1.00;;;;;;;;5058192;28;45383;-71
2022/06/13 13:08:21;;;;;;;;;1.00;1.00;;;;;;;;5058965;28;45364;-70
2022/06/13 13:10:58;;;;;;;;;0.00;0.00;;;;;;;;5058727;28;45743;-71
2022/06/13 13:13:32;;;;;;;;;0.00;0.00;;;;;;;;5058697;28;46523;-71
2022/06/13 13:16:12;;;;;;;;;0.00;0.00;;;;;;;;5058654;28;45373;-71
2022/06/13 13:18:57;;;;;;;;;3.33;0.00;;;;;;;;5058504;28;45420;-71
2022/06/13 13:21:28;;;;;;;;;8.67;4.00;;;;;;;;5058433;28;45476;-71
2022/06/13 13:23:56;;;;;;;;;1.00;0.33;;;;;;;;5058489;28;46145;-71
2022/06/13 13:26:41;;;;;;;;;0.33;0.33;;;;;;;;5058410;28;45449;-70
2022/06/13 13:29:06;;;;;;;;;1.00;1.00;;;;;;;;5058702;28;45261;-69
2022/06/13 13:31:36;;;;;;;;;2.00;0.33;;;;;;;;5058927;28;46405;-69
2022/06/13 13:34:07;;;;;;;;;0.00;0.00;;;;;;;;5058408;28;45514;-70
2022/06/13 13:36:33;;;;;;;;;0.00;0.00;;;;;;;;5057906;28;45639;-70
2022/06/13 13:39:01;;;;;;;;;1.00;1.00;;;;;;;;5074707;28;45475;-70
2022/06/13 13:41:27;;;;;;;;;2.33;1.00;;;;;;;;5058732;28;45313;-71
2022/06/13 13:43:57;;;;;;;;;2.00;0.33;;;;;;;;5074957;28;46692;-70
2022/06/13 13:46:35;;;;;;;;;1.00;1.00;;;;;;;;5077003;28;45537;-69
2022/06/13 13:49:00;;;;;;;;;0.67;0.33;;;;;;;;5058337;28;45402;-69
2022/06/13 13:51:31;;;;;;;;;1.33;1.00;;;;;;;;5058278;28;45311;-69
2022/06/13 13:54:15;;;;;;;;;2.00;2.00;;;;;;;;5058094;28;46213;-70
2022/06/13 13:56:40;;;;;;;;;0.00;0.00;;;;;;;;5037106;28;45923;-70
2022/06/13 13:59:08;;;;;;;;;0.00;0.00;;;;;;;;5037863;28;45297;-70
2022/06/13 14:01:37;;;;;;;;;0.00;0.00;;;;;;;;5038461;28;45479;-70
2022/06/13 14:04:21;;;;;;;;;1.00;1.00;;;;;;;;5057386;28;45368;-70
2022/06/13 14:06:49;;;;;;;;;0.00;0.00;;;;;;;;5037375;28;45389;-69
2022/06/13 14:09:19;;;;;;;;;1.00;1.00;;;;;;;;5056676;28;45531;-69
2022/06/13 14:12:02;;;;;;;;;0.33;0.00;;;;;;;;5078405;28;45447;-70
2022/06/13 14:14:37;;;;;;;;;1.67;0.00;;;;;;;;5077781;28;46472;-70
2022/06/13 14:17:04;;;;;;;;;2.33;2.33;;;;;;;;5077946;28;45456;-71
2022/06/13 14:19:31;;;;;;;;;2.00;0.00;;;;;;;;5062791;28;45824;-70
2022/06/13 14:22:09;;;;;;;;;2.00;0.33;;;;;;;;5057527;28;45519;-70
2022/06/13 14:24:45;;;;;;;;;0.00;0.00;;;;;;;;5057099;28;46566;-69
2022/06/13 14:27:10;;;;;;;;;1.00;1.00;;;;;;;;5057032;28;45411;-70
2022/06/13 14:29:42;;;;;;;;;0.00;0.00;;;;;;;;5061363;28;45452;-70
2022/06/13 14:32:10;;;;;;;;;2.33;1.00;;;;;;;;5057929;28;45435;-70
2022/06/13 14:37:51;;;;;;;;;0.00;0.00;;;;;;;;5073836;28;45399;-70
2022/06/13 14:40:19;;;;;;;;;2.00;2.00;;;;;;;;5056966;28;45424;-71
2022/06/13 14:42:56;;;;;;;;;1.00;1.00;;;;;;;;5078519;28;45477;-71
2022/06/13 14:45:34;;;;;;;;;0.00;0.00;;;;;;;;5058995;28;45582;-72
2022/06/13 14:48:18;;;;;;;;;2.33;2.33;;;;;;;;5056918;28;45458;-70
2022/06/13 14:51:03;;;;;;;;;1.00;1.00;;;;;;;;5057621;28;45163;-72
2022/06/13 14:53:32;;;;;;;;;1.00;1.00;;;;;;;;5052641;28;45586;-72
2022/06/13 14:56:17;;;;;;;;;2.33;0.00;;;;;;;;5072545;28;45730;-70
2022/06/13 14:58:45;;;;;;;;;2.00;0.33;;;;;;;;5062549;28;45343;-73
2022/06/13 15:01:18;;;;;;;;;0.00;0.00;;;;;;;;5077985;28;45415;-70
2022/06/13 15:03:59;;;;;;;;;1.67;0.00;;;;;;;;5077943;28;45461;-70
2022/06/13 15:06:25;;;;;;;;;0.00;0.00;;;;;;;;5076919;27;45381;-70
2022/06/13 15:08:59;;;;;;;;;3.00;1.00;;;;;;;;5077169;28;45452;-70
2022/06/13 15:11:24;;;;;;;;;1.67;1.67;;;;;;;;5077948;28;45449;-70
2022/06/13 15:13:50;;;;;;;;;3.00;1.00;;;;;;;;5069103;28;45287;-71
2022/06/13 15:16:16;;;;;;;;;0.00;0.00;;;;;;;;5057351;28;46466;-72
2022/06/13 15:18:44;;;;;;;;;1.00;1.00;;;;;;;;5057333;28;45352;-70
2022/06/13 15:21:16;;;;;;;;;2.00;1.00;;;;;;;;5068888;28;45483;-71